createdAt,value
2022-09-10T00:02:01.628Z,3.90
2022-09-10T00:04:30.255Z,5.83
2022-09-10T00:06:58.115Z,4.77
2022-09-10T00:09:25.698Z,5.40
2022-09-10T00:11:53.236Z,2.47
2022-09-10T00:14:22.759Z,5.47
2022-09-10T00:16:50.991Z,8.93
2022-09-10T00:19:20.814Z,5.63
2022-09-10T00:21:50.277Z,10.83
2022-09-10T00:24:17.838Z,2.53
2022-09-10T00:26:45.945Z,6.37
2022-09-10T00:29:15.790Z,4.97
2022-09-10T00:31:43.466Z,3.53
2022-09-10T00:34:13.930Z,5.10
2022-09-10T00:36:44.442Z,4.13
2022-09-10T00:39:14.193Z,1.80
2022-09-10T00:41:43.252Z,3.93
2022-09-10T00:44:44.732Z,9.23
2022-09-10T00:47:16.022Z,10.07
2022-09-10T00:49:45.959Z,5.47
2022-09-10T00:52:15.093Z,5.20
2022-09-10T00:54:43.845Z,4.40
2022-09-10T00:57:14.362Z,2.70
2022-09-10T00:59:43.851Z,5.67
2022-09-10T01:02:12.365Z,3.73
2022-09-10T01:04:40.342Z,3.10
2022-09-10T01:07:09.725Z,3.37
2022-09-10T01:09:39.194Z,3.93
2022-09-10T01:12:17.445Z,5.70
2022-09-10T01:14:55.772Z,3.63
2022-09-10T01:17:29.680Z,4.50
2022-09-10T01:20:36.333Z,5.13
2022-09-10T01:23:27.095Z,4.17
2022-09-10T01:26:04.888Z,1.67
2022-09-10T01:28:36.696Z,4.80
2022-09-10T01:31:12.110Z,3.40
2022-09-10T01:33:44.011Z,1.33
2022-09-10T01:36:15.553Z,1.73
2022-09-10T01:38:43.343Z,1.47
2022-09-10T01:41:11.253Z,8.60
2022-09-10T01:43:41.857Z,2.63
2022-09-10T01:46:21.908Z,4.17
2022-09-10T01:56:29.494Z,2.57
2022-09-10T01:59:04.546Z,4.27
2022-09-10T02:01:35.458Z,2.77
2022-09-10T02:04:05.424Z,3.80
2022-09-10T02:06:36.306Z,4.20
2022-09-10T02:09:04.635Z,2.17
2022-09-10T02:11:33.144Z,3.67
2022-09-10T02:14:02.029Z,3.03
2022-09-10T02:16:31.341Z,3.87
2022-09-10T02:19:00.571Z,4.40
2022-09-10T02:21:28.325Z,2.57
2022-09-10T02:23:57.457Z,5.57
2022-09-10T02:26:25.810Z,7.77
2022-09-10T02:28:54.483Z,0.93
2022-09-10T02:31:23.956Z,6.10
2022-09-10T02:33:51.858Z,3.50
2022-09-10T02:36:20.125Z,6.63
2022-09-10T02:38:47.899Z,4.43
2022-09-10T02:41:15.522Z,6.43
2022-09-10T02:43:43.729Z,6.43
2022-09-10T02:46:12.793Z,5.97
2022-09-10T02:48:41.649Z,6.40
2022-09-10T02:51:09.227Z,3.93
2022-09-10T02:53:36.950Z,4.30
2022-09-10T02:56:04.705Z,8.00
2022-09-10T02:58:34.264Z,2.97
2022-09-10T03:01:07.395Z,4.10
2022-09-10T03:03:35.454Z,4.43
2022-09-10T03:06:04.565Z,3.50
2022-09-10T03:08:32.672Z,5.17
2022-09-10T03:11:00.274Z,5.77
2022-09-10T03:13:28.816Z,1.80
2022-09-10T03:15:56.403Z,3.43
2022-09-10T03:18:24.090Z,7.13
2022-09-10T03:20:52.070Z,4.57
2022-09-10T03:23:20.966Z,4.73
2022-09-10T03:25:49.897Z,5.13
2022-09-10T03:28:17.630Z,7.07
2022-09-10T03:30:45.199Z,6.97
2022-09-10T03:33:13.476Z,5.30
2022-09-10T03:35:41.034Z,4.60
2022-09-10T03:38:09.027Z,3.10
2022-09-10T03:40:37.895Z,3.43
2022-09-10T03:43:05.458Z,4.13
2022-09-10T03:45:33.104Z,2.50
2022-09-10T03:48:01.006Z,6.50
2022-09-10T03:50:28.546Z,8.33
2022-09-10T03:52:56.909Z,5.90
2022-09-10T03:55:24.770Z,3.43
2022-09-10T03:57:53.642Z,10.27
2022-09-10T04:00:21.355Z,6.07
2022-09-10T04:02:48.954Z,7.80
2022-09-10T04:05:16.690Z,6.53
2022-09-10T04:07:44.158Z,8.33
2022-09-10T04:10:13.207Z,9.67
2022-09-10T04:12:40.737Z,8.63
2022-09-10T04:15:10.768Z,6.03
2022-09-10T04:17:38.440Z,8.33
2022-09-10T04:20:06.950Z,7.40
2022-09-10T04:22:35.497Z,5.00
2022-09-10T04:25:03.056Z,11.60
2022-09-10T04:27:30.932Z,8.80
2022-09-10T04:29:58.638Z,7.37
2022-09-10T04:32:27.882Z,7.07
2022-09-10T04:34:55.932Z,7.07
2022-09-10T04:37:24.490Z,7.93
2022-09-10T04:39:52.112Z,8.23
2022-09-10T04:42:20.228Z,8.17
2022-09-10T04:44:49.011Z,7.03
2022-09-10T04:47:17.465Z,8.67
2022-09-10T04:49:46.417Z,6.40
2022-09-10T04:52:14.738Z,8.73
2022-09-10T04:54:42.506Z,6.50
2022-09-10T04:57:10.105Z,6.57
2022-09-10T04:59:38.252Z,8.33
2022-09-10T05:02:06.595Z,6.03
2022-09-10T05:04:35.020Z,8.73
2022-09-10T05:07:03.990Z,7.53
2022-09-10T05:09:33.429Z,8.00
2022-09-10T05:12:02.689Z,8.37
2022-09-10T05:14:31.805Z,7.17
2022-09-10T05:16:59.756Z,12.57
2022-09-10T05:19:27.491Z,6.13
2022-09-10T05:21:55.417Z,3.60
2022-09-10T05:24:24.315Z,7.60
2022-09-10T05:26:51.856Z,9.90
2022-09-10T05:29:19.427Z,6.70
2022-09-10T05:31:47.002Z,7.40
2022-09-10T05:34:14.624Z,7.40
2022-09-10T05:36:42.145Z,6.43
2022-09-10T05:39:09.697Z,6.73
2022-09-10T05:41:38.814Z,8.53
2022-09-10T05:44:06.324Z,6.23
2022-09-10T05:46:33.889Z,7.93
2022-09-10T05:49:01.404Z,6.30
2022-09-10T05:51:30.619Z,10.30
2022-09-10T05:53:59.034Z,13.20
2022-09-10T05:56:27.016Z,6.40
2022-09-10T05:58:55.962Z,6.03
2022-09-10T06:01:23.474Z,7.67
2022-09-10T06:03:51.308Z,5.40
2022-09-10T06:06:19.826Z,6.97
2022-09-10T06:08:51.949Z,7.63
2022-09-10T06:11:19.495Z,5.30
2022-09-10T06:13:47.358Z,5.97
2022-09-10T06:16:17.279Z,6.63
2022-09-10T06:18:44.965Z,10.37
2022-09-10T06:21:14.022Z,7.03
2022-09-10T06:23:42.071Z,6.63
2022-09-10T06:26:12.422Z,7.27
2022-09-10T06:28:40.349Z,7.03
2022-09-10T06:31:11.180Z,9.57
2022-09-10T06:33:40.088Z,9.17
2022-09-10T06:36:07.828Z,2.13
2022-09-10T06:38:36.579Z,6.60
2022-09-10T06:41:06.189Z,7.90
2022-09-10T06:43:36.298Z,6.47
2022-09-10T06:46:05.697Z,7.73
2022-09-10T06:48:38.933Z,4.40
2022-09-10T06:51:09.244Z,7.67
2022-09-10T06:53:37.599Z,4.13
2022-09-10T06:56:08.159Z,10.20
2022-09-10T06:58:36.438Z,2.87
2022-09-10T07:01:11.888Z,8.53
2022-09-10T07:03:39.438Z,7.50
2022-09-10T07:06:10.882Z,7.73
2022-09-10T07:08:39.561Z,5.83
2022-09-10T07:11:09.134Z,9.10
2022-09-10T07:13:36.853Z,7.53
2022-09-10T07:16:04.805Z,5.00
2022-09-10T07:18:33.362Z,9.57
2022-09-10T07:21:09.152Z,7.10
2022-09-10T07:23:36.710Z,12.40
2022-09-10T07:26:05.698Z,3.27
2022-09-10T07:28:33.341Z,7.93
2022-09-10T07:31:00.979Z,8.50
2022-09-10T07:33:28.676Z,7.57
2022-09-10T07:35:56.237Z,13.13
2022-09-10T07:38:25.110Z,8.00
2022-09-10T07:40:52.702Z,7.00
2022-09-10T07:43:20.242Z,8.40
2022-09-10T07:45:47.810Z,5.03
2022-09-10T07:48:15.457Z,7.13
2022-09-10T07:50:43.366Z,6.50
2022-09-10T07:53:11.169Z,8.13
2022-09-10T07:55:40.086Z,5.47
2022-09-10T07:58:07.852Z,3.67
2022-09-10T08:00:35.515Z,6.87
2022-09-10T08:03:03.301Z,4.33
2022-09-10T08:05:31.336Z,6.23
2022-09-10T08:07:58.906Z,11.50
2022-09-10T08:10:26.694Z,8.93
2022-09-10T08:12:56.360Z,8.77
2022-09-10T08:15:23.934Z,2.83
2022-09-10T08:17:52.314Z,7.63
2022-09-10T08:20:19.980Z,10.60
2022-09-10T08:22:50.035Z,7.67
2022-09-10T08:25:20.434Z,10.93
2022-09-10T08:27:47.993Z,6.13
2022-09-10T08:30:17.291Z,7.87
2022-09-10T08:32:44.906Z,6.20
2022-09-10T08:35:14.860Z,7.73
2022-09-10T08:37:42.581Z,5.30
2022-09-10T08:40:13.215Z,9.77
2022-09-10T08:42:42.872Z,8.30
2022-09-10T08:45:13.797Z,4.47
2022-09-10T08:47:49.145Z,7.33
2022-09-10T08:50:28.142Z,7.40
2022-09-10T08:52:59.390Z,6.93
2022-09-10T08:55:31.457Z,12.53
2022-09-10T08:58:00.928Z,6.37
2022-09-10T09:00:33.151Z,10.57
2022-09-10T09:03:05.916Z,10.23
2022-09-10T09:05:42.872Z,5.73
2022-09-10T09:08:12.454Z,7.50
2022-09-10T09:10:46.062Z,8.03
2022-09-10T09:13:29.831Z,7.77
2022-09-10T09:16:06.295Z,8.63
2022-09-10T09:18:42.778Z,8.13
2022-09-10T09:21:17.656Z,7.57
2022-09-10T09:24:12.357Z,13.43
2022-09-10T09:26:43.037Z,9.50
2022-09-10T09:29:14.751Z,9.70
2022-09-10T09:31:45.811Z,13.20
2022-09-10T09:34:20.183Z,12.23
2022-09-10T09:36:50.978Z,9.03
2022-09-10T09:39:25.312Z,9.93
2022-09-10T09:42:00.256Z,12.33
2022-09-10T09:44:32.567Z,12.53
2022-09-10T09:47:03.656Z,11.50
2022-09-10T09:49:32.523Z,9.50
2022-09-10T09:52:01.332Z,12.40
2022-09-10T09:57:20.551Z,12.87
2022-09-10T09:59:49.282Z,10.87
2022-09-10T10:02:19.143Z,16.57
2022-09-10T10:05:06.994Z,13.57
2022-09-10T10:07:36.292Z,13.50
2022-09-10T10:10:06.743Z,14.47
2022-09-10T10:12:34.871Z,12.53
2022-09-10T10:15:03.238Z,12.53
2022-09-10T10:17:37.441Z,9.73
2022-09-10T10:20:09.926Z,10.73
2022-09-10T10:22:38.801Z,15.40
2022-09-10T10:25:33.058Z,11.83
2022-09-10T10:28:01.128Z,12.20
2022-09-10T10:30:30.001Z,14.13
2022-09-10T10:32:58.977Z,12.27
2022-09-10T10:35:33.760Z,14.57
2022-09-10T10:38:13.538Z,14.93
2022-09-10T10:40:45.429Z,15.50
2022-09-10T10:43:21.075Z,13.33
2022-09-10T10:45:56.044Z,17.03
2022-09-10T10:48:33.630Z,16.40
2022-09-10T10:51:09.562Z,17.87
2022-09-10T10:53:48.611Z,17.97
2022-09-10T10:56:21.214Z,13.03
2022-09-10T10:58:59.577Z,16.13
2022-09-10T11:01:29.849Z,14.77
2022-09-10T11:04:01.567Z,14.77
2022-09-10T11:06:36.342Z,15.53
2022-09-10T11:09:06.335Z,12.20
2022-09-10T11:11:37.867Z,9.70
2022-09-10T11:14:16.993Z,12.90
2022-09-10T11:16:49.111Z,9.33
2022-09-10T11:19:20.706Z,13.13
2022-09-10T11:21:52.929Z,16.80
2022-09-10T11:24:22.449Z,13.73
2022-09-10T11:26:54.034Z,11.80
2022-09-10T11:29:32.679Z,12.70
2022-09-10T11:32:04.858Z,15.23
2022-09-10T11:34:36.251Z,13.30
2022-09-10T11:37:13.900Z,13.27
2022-09-10T11:39:45.178Z,17.63
2022-09-10T11:42:16.081Z,13.80
2022-09-10T11:44:53.984Z,14.00
2022-09-10T11:47:25.603Z,18.03
2022-09-10T11:49:55.892Z,20.37
2022-09-10T11:52:25.612Z,13.83
2022-09-10T11:54:54.654Z,15.57
2022-09-10T11:57:31.128Z,14.40
2022-09-10T12:00:09.292Z,14.90
2022-09-10T12:02:58.494Z,16.53
2022-09-10T12:05:28.766Z,12.30
2022-09-10T12:08:04.093Z,12.37
2022-09-10T12:10:36.317Z,20.20
2022-09-10T12:13:09.138Z,16.60
2022-09-10T12:15:37.062Z,12.30
2022-09-10T12:18:06.230Z,14.60
2022-09-10T12:20:36.711Z,12.97
2022-09-10T12:23:06.044Z,10.10
2022-09-10T12:25:34.727Z,14.20
2022-09-10T12:28:05.329Z,11.23
2022-09-10T12:31:02.727Z,11.87
2022-09-10T12:33:52.382Z,10.70
2022-09-10T12:36:54.349Z,13.00
2022-09-10T12:39:25.097Z,11.90
2022-09-10T12:41:58.454Z,16.47
2022-09-10T12:44:45.564Z,13.60
2022-09-10T12:47:54.863Z,15.10
2022-09-10T12:50:36.890Z,10.17
2022-09-10T12:53:43.911Z,14.10
2022-09-10T12:56:47.199Z,13.47
2022-09-10T12:59:34.420Z,9.77
2022-09-10T13:02:02.695Z,13.27
2022-09-10T13:04:31.674Z,12.87
2022-09-10T13:07:01.450Z,9.87
2022-09-10T13:09:30.966Z,11.40
2022-09-10T13:12:03.893Z,14.27
2022-09-10T13:14:35.991Z,11.67
2022-09-10T13:17:04.399Z,12.10
2022-09-10T13:19:49.905Z,9.50
2022-09-10T13:23:01.341Z,12.57
2022-09-10T13:25:36.906Z,8.27
2022-09-10T13:28:46.316Z,8.77
2022-09-10T13:31:24.197Z,9.07
2022-09-10T13:34:20.962Z,11.30
2022-09-10T13:37:06.188Z,10.70
2022-09-10T13:40:03.757Z,12.10
2022-09-10T13:42:55.617Z,13.90
2022-09-10T13:45:28.259Z,12.43
2022-09-10T13:48:02.069Z,12.50
2022-09-10T13:50:35.656Z,14.37
2022-09-10T13:53:08.117Z,13.43
2022-09-10T13:55:36.971Z,11.00
2022-09-10T13:58:07.721Z,9.43
2022-09-10T14:00:41.897Z,16.17
2022-09-10T14:03:16.235Z,13.13
2022-09-10T14:05:46.867Z,13.20
2022-09-10T14:08:17.711Z,16.20
2022-09-10T14:10:55.654Z,14.07
2022-09-10T14:13:28.778Z,17.20
2022-09-10T14:15:59.845Z,18.50
2022-09-10T14:18:33.054Z,15.73
2022-09-10T14:21:00.990Z,15.37
2022-09-10T14:23:30.086Z,11.57
2022-09-10T14:26:10.741Z,15.23
2022-09-10T14:28:50.387Z,14.47
2022-09-10T14:31:28.255Z,13.57
2022-09-10T14:33:57.926Z,14.63
2022-09-10T14:36:33.364Z,15.90
2022-09-10T14:39:04.511Z,13.13
2022-09-10T14:41:33.682Z,11.80
2022-09-10T14:44:29.782Z,12.27
2022-09-10T14:47:00.383Z,11.10
2022-09-10T14:49:29.978Z,12.27
2022-09-10T14:51:59.053Z,13.13
2022-09-10T14:54:27.436Z,12.00
2022-09-10T14:56:56.923Z,14.13
2022-09-10T14:59:30.116Z,8.47
2022-09-10T15:02:00.788Z,10.40
2022-09-10T15:04:29.918Z,10.57
2022-09-10T15:06:58.568Z,9.33
2022-09-10T15:09:26.965Z,10.80
2022-09-10T15:11:55.933Z,12.77
2022-09-10T15:14:23.661Z,10.53
2022-09-10T15:16:52.018Z,12.67
2022-09-10T15:19:21.256Z,11.50
2022-09-10T15:21:49.424Z,9.43
2022-09-10T15:24:18.534Z,8.50
2022-09-10T15:26:46.909Z,9.40
2022-09-10T15:29:15.695Z,10.67
2022-09-10T15:31:44.433Z,8.60
2022-09-10T15:34:12.193Z,10.77
2022-09-10T15:36:41.669Z,7.37
2022-09-10T15:39:12.954Z,8.07
2022-09-10T15:41:42.981Z,7.10
2022-09-10T15:44:11.119Z,11.27
2022-09-10T15:46:41.804Z,7.07
2022-09-10T15:49:09.772Z,5.10
2022-09-10T15:51:37.310Z,7.97
2022-09-10T15:54:06.789Z,6.43
2022-09-10T15:56:36.534Z,6.97
2022-09-10T15:59:05.610Z,6.67
2022-09-10T16:01:33.730Z,3.80
2022-09-10T16:04:02.997Z,4.37
2022-09-10T16:06:33.344Z,4.20
2022-09-10T16:09:02.085Z,6.30
2022-09-10T16:11:32.158Z,4.33
2022-09-10T16:14:04.241Z,5.43
2022-09-10T16:16:33.219Z,4.80
2022-09-10T16:19:00.832Z,6.47
2022-09-10T16:21:30.906Z,5.10
2022-09-10T16:24:00.127Z,4.90
2022-09-10T16:26:30.773Z,4.43
2022-09-10T16:29:00.801Z,6.87
2022-09-10T16:31:31.077Z,6.77
2022-09-10T16:34:00.233Z,10.57
2022-09-10T16:36:27.932Z,6.50
2022-09-10T16:38:57.445Z,7.87
2022-09-10T16:41:26.935Z,10.87
2022-09-10T16:43:55.047Z,9.90
2022-09-10T16:46:23.989Z,12.03
2022-09-10T16:48:52.622Z,10.13
2022-09-10T16:51:23.162Z,10.33
2022-09-10T16:53:55.695Z,11.63
2022-09-10T16:56:24.346Z,11.87
2022-09-10T16:58:52.508Z,10.20
2022-09-10T17:01:21.158Z,5.40
2022-09-10T17:03:51.883Z,11.50
2022-09-10T17:06:21.127Z,10.73
2022-09-10T17:08:49.976Z,10.17
2022-09-10T17:11:19.022Z,7.73
2022-09-10T17:13:47.553Z,10.23
2022-09-10T17:16:17.393Z,10.37
2022-09-10T17:18:46.142Z,12.20
2022-09-10T17:21:15.488Z,10.13
2022-09-10T17:23:44.026Z,9.07
2022-09-10T17:26:11.728Z,8.73
2022-09-10T17:28:40.396Z,9.13
2022-09-10T17:31:08.355Z,7.93
2022-09-10T17:33:36.405Z,12.47
2022-09-10T17:36:05.370Z,10.07
2022-09-10T17:38:36.149Z,8.10
2022-09-10T17:41:05.307Z,11.80
2022-09-10T17:43:37.408Z,9.00
2022-09-10T17:46:05.472Z,7.67
2022-09-10T17:48:34.464Z,11.27
2022-09-10T17:51:02.521Z,9.67
2022-09-10T17:53:30.350Z,9.07
2022-09-10T17:56:04.841Z,11.17
2022-09-10T17:58:33.156Z,10.33
2022-09-10T18:01:01.978Z,13.90
2022-09-10T18:03:30.124Z,9.77
2022-09-10T18:05:57.903Z,9.03
2022-09-10T18:08:25.426Z,10.00
2022-09-10T18:11:05.762Z,10.20
2022-09-10T18:13:34.054Z,13.27
2022-09-10T18:16:06.127Z,13.27
2022-09-10T18:18:35.291Z,11.40
2022-09-10T18:21:16.589Z,12.33
2022-09-10T18:23:44.577Z,12.90
2022-09-10T18:26:15.234Z,13.53
2022-09-10T18:28:44.100Z,15.43
2022-09-10T18:31:13.153Z,14.50
2022-09-10T18:33:41.799Z,15.33
2022-09-10T18:36:14.221Z,11.83
2022-09-10T18:38:43.583Z,10.70
2022-09-10T18:41:20.787Z,12.37
2022-09-10T18:43:48.773Z,12.13
2022-09-10T18:46:17.402Z,14.93
2022-09-10T18:48:46.605Z,17.03
2022-09-10T18:51:15.677Z,12.87
2022-09-10T18:53:45.368Z,15.37
2022-09-10T18:56:14.835Z,12.77
2022-09-10T18:58:49.005Z,15.30
2022-09-10T19:01:17.341Z,10.77
2022-09-10T19:03:49.590Z,15.70
2022-09-10T19:06:19.190Z,13.77
2022-09-10T19:08:48.717Z,16.10
2022-09-10T19:11:19.013Z,14.40
2022-09-10T19:13:51.664Z,11.53
2022-09-10T19:16:20.330Z,18.57
2022-09-10T19:18:51.910Z,16.20
2022-09-10T19:21:20.168Z,15.97
2022-09-10T19:23:48.426Z,12.93
2022-09-10T19:26:16.987Z,18.90
2022-09-10T19:28:45.888Z,17.60
2022-09-10T19:31:20.798Z,19.63
2022-09-10T19:33:49.509Z,16.00
2022-09-10T19:36:19.106Z,15.70
2022-09-10T19:38:47.808Z,15.70
2022-09-10T19:41:17.232Z,16.83
2022-09-10T19:43:44.965Z,16.77
2022-09-10T19:46:14.739Z,11.67
2022-09-10T19:48:45.272Z,14.03
2022-09-10T19:51:14.545Z,17.83
2022-09-10T19:53:42.560Z,15.90
2022-09-10T19:56:19.610Z,17.43
2022-09-10T19:58:50.506Z,15.83
2022-09-10T20:01:19.882Z,16.63
2022-09-10T20:03:50.430Z,18.80
2022-09-10T20:06:20.504Z,12.70
2022-09-10T20:08:50.588Z,13.40
2022-09-10T20:11:20.155Z,16.03
2022-09-10T20:13:48.453Z,14.47
2022-09-10T20:16:17.461Z,13.73
2022-09-10T20:18:45.708Z,15.90
2022-09-10T20:21:17.021Z,12.20
2022-09-10T20:23:46.467Z,13.40
2022-09-10T20:26:15.883Z,14.03
2022-09-10T20:28:44.360Z,16.47
2022-09-10T20:31:13.240Z,19.37
2022-09-10T20:33:42.202Z,20.60
2022-09-10T20:36:11.736Z,21.57
2022-09-10T20:38:41.006Z,18.37
2022-09-10T20:41:09.816Z,18.30
2022-09-10T20:43:37.533Z,17.83
2022-09-10T20:46:05.276Z,18.63
2022-09-10T20:48:33.259Z,19.27
2022-09-10T20:51:01.830Z,20.23
2022-09-10T20:53:29.480Z,21.40
2022-09-10T20:56:06.371Z,20.40
2022-09-10T20:58:35.304Z,16.97
2022-09-10T21:01:07.667Z,20.90
2022-09-10T21:03:35.254Z,22.67
2022-09-10T21:06:03.158Z,21.77
2022-09-10T21:08:31.720Z,18.23
2022-09-10T21:11:04.893Z,24.27
2022-09-10T21:13:34.018Z,19.13
2022-09-10T21:16:12.637Z,20.23
2022-09-10T21:18:41.587Z,20.27
2022-09-10T21:21:10.368Z,18.47
2022-09-10T21:23:42.803Z,24.97
2022-09-10T21:26:11.761Z,19.87
2022-09-10T21:28:39.839Z,20.50
2022-09-10T21:31:08.585Z,20.13
2022-09-10T21:33:37.178Z,18.77
2022-09-10T21:36:07.088Z,21.93
2022-09-10T21:38:35.902Z,22.50
2022-09-10T21:41:04.528Z,17.53
2022-09-10T21:43:34.747Z,18.53
2022-09-10T21:46:03.017Z,20.40
2022-09-10T21:48:31.558Z,20.40
2022-09-10T21:51:00.593Z,15.03
2022-09-10T21:53:28.754Z,16.93
2022-09-10T21:55:56.857Z,18.77
2022-09-10T21:58:27.825Z,17.97
2022-09-10T22:00:58.259Z,19.07
2022-09-10T22:03:26.488Z,20.97
2022-09-10T22:05:54.402Z,17.90
2022-09-10T22:08:22.590Z,19.03
2022-09-10T22:10:50.791Z,18.83
2022-09-10T22:13:18.367Z,17.87
2022-09-10T22:15:45.972Z,19.10
2022-09-10T22:18:15.336Z,21.20
2022-09-10T22:20:43.111Z,20.23
2022-09-10T22:23:10.606Z,23.33
2022-09-10T22:25:38.217Z,21.10
2022-09-10T22:28:06.156Z,20.60
2022-09-10T22:30:34.111Z,21.47
2022-09-10T22:33:01.645Z,24.03
2022-09-10T22:35:31.049Z,22.70
2022-09-10T22:37:58.525Z,27.40
2022-09-10T22:40:26.347Z,24.90
2022-09-10T22:42:54.113Z,25.67
2022-09-10T22:45:21.702Z,20.17
2022-09-10T22:47:49.354Z,26.70
2022-09-10T22:50:17.090Z,25.43
2022-09-10T22:52:46.702Z,27.60
2022-09-10T22:55:14.502Z,25.20
2022-09-10T22:57:42.352Z,27.47
2022-09-10T23:00:12.755Z,31.13
2022-09-10T23:02:40.449Z,24.83
2022-09-10T23:05:08.622Z,25.60
2022-09-10T23:07:36.450Z,26.87
2022-09-10T23:10:06.715Z,31.37
2022-09-10T23:12:34.588Z,24.67
2022-09-10T23:15:02.206Z,26.00
2022-09-10T23:17:29.760Z,25.03
2022-09-10T23:19:57.356Z,26.33
2022-09-10T23:22:24.922Z,31.23
2022-09-10T23:24:52.626Z,29.93
2022-09-10T23:27:21.759Z,30.50
2022-09-10T23:29:49.566Z,27.33
2022-09-10T23:32:17.730Z,26.13
2022-09-10T23:34:45.440Z,30.97
2022-09-10T23:37:13.132Z,27.00
2022-09-10T23:39:41.041Z,25.10
2022-09-10T23:42:09.082Z,28.10
2022-09-10T23:44:38.249Z,26.87
2022-09-10T23:47:06.902Z,24.67
2022-09-10T23:49:34.455Z,31.07
2022-09-10T23:52:02.291Z,31.87
2022-09-10T23:54:30.340Z,24.93
2022-09-10T23:56:58.095Z,27.77
2022-09-10T23:59:25.923Z,26.40
